createdAt,value
2018-05-18T00:02:11.795Z,28.10
2018-05-18T00:04:38.118Z,27.57
2018-05-18T00:07:04.482Z,28.90
2018-05-18T00:09:31.546Z,30.13
2018-05-18T00:11:57.879Z,30.67
2018-05-18T00:14:24.227Z,29.77
2018-05-18T00:16:50.586Z,29.13
2018-05-18T00:19:16.905Z,27.90
2018-05-18T00:21:43.264Z,30.13
2018-05-18T00:24:10.339Z,29.80
2018-05-18T00:26:36.712Z,30.40
2018-05-18T00:29:03.022Z,29.80
2018-05-18T00:31:29.339Z,30.07
2018-05-18T00:33:55.677Z,28.67
2018-05-18T00:36:21.998Z,28.47
2018-05-18T00:38:48.992Z,27.10
2018-05-18T00:41:15.345Z,27.00
2018-05-18T00:43:42.434Z,27.33
2018-05-18T00:46:08.757Z,29.40
2018-05-18T00:48:35.096Z,28.97
2018-05-18T00:51:01.436Z,28.83
2018-05-18T00:53:27.782Z,30.07
2018-05-18T00:55:54.122Z,29.43
2018-05-18T00:58:20.471Z,29.80
2018-05-18T01:00:46.799Z,27.97
2018-05-18T01:03:13.918Z,29.67
2018-05-18T01:05:40.246Z,27.73
2018-05-18T01:08:07.328Z,28.50
2018-05-18T01:10:35.050Z,27.83
2018-05-18T01:13:01.409Z,27.60
2018-05-18T01:15:28.481Z,27.93
2018-05-18T01:17:54.847Z,27.23
2018-05-18T01:20:21.212Z,25.83
2018-05-18T01:22:48.379Z,26.53
2018-05-18T01:25:14.731Z,27.67
2018-05-18T01:27:41.104Z,26.10
2018-05-18T01:30:07.439Z,28.47
2018-05-18T01:32:34.555Z,25.80
2018-05-18T01:35:00.871Z,24.93
2018-05-18T01:37:27.230Z,24.43
2018-05-18T01:39:53.559Z,23.17
2018-05-18T01:42:19.897Z,22.50
2018-05-18T01:44:46.247Z,21.90
2018-05-18T01:47:12.569Z,22.70
2018-05-18T01:49:38.932Z,24.10
2018-05-18T01:52:05.992Z,22.80
2018-05-18T01:54:33.086Z,22.27
2018-05-18T01:56:59.394Z,22.70
2018-05-18T01:59:25.743Z,21.60
2018-05-18T02:01:52.079Z,21.57
2018-05-18T02:04:18.445Z,20.37
2018-05-18T02:06:44.754Z,18.83
2018-05-18T02:09:11.093Z,19.30
2018-05-18T02:11:37.413Z,19.40
2018-05-18T02:14:03.748Z,19.50
2018-05-18T02:16:30.066Z,20.10
2018-05-18T02:18:56.430Z,18.97
2018-05-18T02:21:23.482Z,18.93
2018-05-18T02:23:49.820Z,18.83
2018-05-18T02:26:16.146Z,18.43
2018-05-18T02:28:43.254Z,16.93
2018-05-18T02:31:09.583Z,19.10
2018-05-18T02:33:35.926Z,17.53
2018-05-18T02:36:02.273Z,17.63
2018-05-18T02:38:29.393Z,17.07
2018-05-18T02:40:55.734Z,18.37
2018-05-18T02:43:22.104Z,17.90
2018-05-18T02:45:48.433Z,18.23
2018-05-18T02:48:14.810Z,20.90
2018-05-18T02:50:41.144Z,19.23
2018-05-18T02:53:07.487Z,18.30
2018-05-18T02:55:33.809Z,20.30
2018-05-18T02:58:00.156Z,20.20
2018-05-18T03:00:26.515Z,19.80
2018-05-18T03:02:52.874Z,19.00
2018-05-18T03:05:19.235Z,19.97
2018-05-18T03:07:45.583Z,19.00
2018-05-18T03:10:11.990Z,19.90
2018-05-18T03:12:38.316Z,19.90
2018-05-18T03:15:04.729Z,21.60
2018-05-18T03:17:31.095Z,21.40
2018-05-18T03:19:57.478Z,20.60
2018-05-18T03:22:23.807Z,18.87
2018-05-18T03:24:50.180Z,19.20
2018-05-18T03:27:16.609Z,20.77
2018-05-18T03:29:42.965Z,21.10
2018-05-18T03:32:10.041Z,20.20
2018-05-18T03:34:36.395Z,19.53
2018-05-18T03:37:02.850Z,18.70
2018-05-18T03:39:30.022Z,19.13
2018-05-18T03:41:57.117Z,19.43
2018-05-18T03:44:23.463Z,20.70
2018-05-18T03:46:49.807Z,20.83
2018-05-18T03:49:16.797Z,20.30
2018-05-18T03:51:44.007Z,20.87
2018-05-18T03:54:10.366Z,19.60
2018-05-18T03:56:37.441Z,20.60
2018-05-18T03:59:03.802Z,18.40
2018-05-18T04:01:42.366Z,19.50
2018-05-18T04:04:20.999Z,18.40
2018-05-18T04:07:00.401Z,19.57
2018-05-18T04:09:26.817Z,18.90
2018-05-18T04:11:53.530Z,19.00
2018-05-18T04:14:20.092Z,18.70
2018-05-18T04:16:46.435Z,17.40
2018-05-18T04:19:13.550Z,17.73
2018-05-18T04:21:40.009Z,18.60
2018-05-18T04:24:06.342Z,18.67
2018-05-18T04:26:32.715Z,18.10
2018-05-18T04:28:59.064Z,18.40
2018-05-18T04:31:25.491Z,19.27
2018-05-18T04:33:51.841Z,19.80
2018-05-18T04:36:18.249Z,18.87
2018-05-18T04:38:44.617Z,17.23
2018-05-18T04:41:11.986Z,18.50
2018-05-18T04:43:38.326Z,18.90
2018-05-18T04:46:05.446Z,19.47
2018-05-18T04:48:31.810Z,19.50
2018-05-18T04:50:58.211Z,20.60
2018-05-18T04:53:24.635Z,18.90
2018-05-18T04:55:51.187Z,21.23
2018-05-18T04:58:17.541Z,19.37
2018-05-18T05:00:44.700Z,21.13
2018-05-18T05:03:11.067Z,20.60
2018-05-18T05:05:37.476Z,19.33
2018-05-18T05:08:03.817Z,20.30
2018-05-18T05:10:30.221Z,19.37
2018-05-18T05:12:57.317Z,20.77
2018-05-18T05:15:23.720Z,19.50
2018-05-18T05:17:50.146Z,20.30
2018-05-18T05:20:16.553Z,20.77
2018-05-18T05:22:43.688Z,20.80
2018-05-18T05:25:10.865Z,20.20
2018-05-18T05:27:37.978Z,19.63
2018-05-18T05:30:04.387Z,20.30
2018-05-18T05:32:30.780Z,20.17
2018-05-18T05:34:57.910Z,21.30
2018-05-18T05:37:24.275Z,20.97
2018-05-18T05:39:50.635Z,18.80
2018-05-18T05:42:17.034Z,19.17
2018-05-18T05:44:43.407Z,18.37
2018-05-18T05:47:09.822Z,19.93
2018-05-18T05:49:36.191Z,19.20
2018-05-18T05:52:02.613Z,19.53
2018-05-18T05:54:28.981Z,18.13
2018-05-18T05:56:56.145Z,19.73
2018-05-18T05:59:23.039Z,19.90
2018-05-18T06:01:49.428Z,19.77
2018-05-18T06:04:15.776Z,18.80
2018-05-18T06:06:42.182Z,18.73
2018-05-18T06:09:08.674Z,18.43
2018-05-18T06:11:35.206Z,19.10
2018-05-18T06:14:01.586Z,19.13
2018-05-18T06:16:27.956Z,18.63
2018-05-18T06:18:54.377Z,17.80
2018-05-18T06:21:20.749Z,18.50
2018-05-18T06:23:47.128Z,17.00
2018-05-18T06:26:13.509Z,18.37
2018-05-18T06:28:40.675Z,17.87
2018-05-18T06:31:07.019Z,16.30
2018-05-18T06:33:33.384Z,17.30
2018-05-18T06:35:59.761Z,18.00
2018-05-18T06:38:26.175Z,18.83
2018-05-18T06:40:52.602Z,17.93
2018-05-18T06:43:19.009Z,18.07
2018-05-18T06:45:45.364Z,17.97
2018-05-18T06:48:11.790Z,17.50
2018-05-18T06:50:38.166Z,17.97
2018-05-18T06:53:04.536Z,16.80
2018-05-18T06:55:30.870Z,18.10
2018-05-18T06:57:57.265Z,17.53
2018-05-18T07:00:25.340Z,17.60
2018-05-18T07:02:51.929Z,18.40
2018-05-18T07:05:18.349Z,17.87
2018-05-18T07:07:44.736Z,17.60
2018-05-18T07:10:11.729Z,15.83
2018-05-18T07:12:38.098Z,16.27
2018-05-18T07:15:05.175Z,16.40
2018-05-18T07:17:31.533Z,17.70
2018-05-18T07:19:57.880Z,16.67
2018-05-18T07:22:24.399Z,17.37
2018-05-18T07:24:50.767Z,16.77
2018-05-18T07:27:17.848Z,17.10
2018-05-18T07:29:44.192Z,18.30
2018-05-18T07:32:10.585Z,16.23
2018-05-18T07:34:36.944Z,16.90
2018-05-18T07:37:03.306Z,17.07
2018-05-18T07:39:29.734Z,15.47
2018-05-18T07:41:56.095Z,15.70
2018-05-18T07:44:22.502Z,16.67
2018-05-18T07:46:48.834Z,17.03
2018-05-18T07:49:22.117Z,16.70
2018-05-18T07:51:48.470Z,16.87
2018-05-18T07:54:15.587Z,15.70
2018-05-18T07:56:41.930Z,16.73
2018-05-18T07:59:08.261Z,17.57
2018-05-18T08:01:34.796Z,18.43
2018-05-18T08:04:01.301Z,16.40
2018-05-18T08:06:27.654Z,18.10
2018-05-18T08:08:54.002Z,17.70
2018-05-18T08:11:21.110Z,17.20
2018-05-18T08:13:47.472Z,18.30
2018-05-18T08:16:13.841Z,18.37
2018-05-18T08:18:40.184Z,17.20
2018-05-18T08:21:06.537Z,17.17
2018-05-18T08:23:39.038Z,18.03
2018-05-18T08:26:05.439Z,15.57
2018-05-18T08:28:44.097Z,16.80
2018-05-18T08:31:10.526Z,17.73
2018-05-18T08:33:37.620Z,18.30
2018-05-18T08:36:07.602Z,16.67
2018-05-18T08:38:33.964Z,16.60
2018-05-18T08:41:00.323Z,16.77
2018-05-18T08:43:26.673Z,16.90
2018-05-18T08:45:53.019Z,14.67
2018-05-18T08:48:19.393Z,15.20
2018-05-18T08:50:45.735Z,15.40
2018-05-18T08:53:12.089Z,15.70
2018-05-18T08:55:38.481Z,15.10
2018-05-18T08:58:04.902Z,15.10
2018-05-18T09:00:31.963Z,15.23
2018-05-18T09:02:58.322Z,16.07
2018-05-18T09:05:24.674Z,15.30
2018-05-18T09:07:51.284Z,16.27
2018-05-18T09:10:17.601Z,15.47
2018-05-18T09:12:43.967Z,15.40
2018-05-18T09:15:10.325Z,17.07
2018-05-18T09:17:37.451Z,16.03
2018-05-18T09:20:03.789Z,14.97
2018-05-18T09:22:30.134Z,15.70
2018-05-18T09:24:56.501Z,15.00
2018-05-18T09:27:22.920Z,15.23
2018-05-18T09:29:49.281Z,15.03
2018-05-18T09:32:15.639Z,14.87
2018-05-18T09:34:41.984Z,15.43
2018-05-18T09:37:08.295Z,15.10
2018-05-18T09:39:34.639Z,15.57
2018-05-18T09:42:00.993Z,15.23
2018-05-18T09:44:28.091Z,15.23
2018-05-18T09:46:54.440Z,15.80
2018-05-18T09:49:20.798Z,15.23
2018-05-18T09:51:47.139Z,15.80
2018-05-18T09:54:13.582Z,14.80
2018-05-18T09:56:40.605Z,15.20
2018-05-18T09:59:07.858Z,14.63
2018-05-18T10:01:34.144Z,18.20
2018-05-18T10:04:00.497Z,15.60
2018-05-18T10:06:26.839Z,16.10
2018-05-18T10:08:53.939Z,15.27
2018-05-18T10:11:20.279Z,16.93
2018-05-18T10:13:46.606Z,15.10
2018-05-18T10:16:12.995Z,16.03
2018-05-18T10:18:40.248Z,15.50
2018-05-18T10:21:06.522Z,15.07
2018-05-18T10:23:33.088Z,14.87
2018-05-18T10:25:59.487Z,14.97
2018-05-18T10:28:25.836Z,17.00
2018-05-18T10:30:52.206Z,14.87
2018-05-18T10:33:19.245Z,14.77
2018-05-18T10:35:45.619Z,14.67
2018-05-18T10:38:11.942Z,16.73
2018-05-18T10:40:38.336Z,15.40
2018-05-18T10:43:05.449Z,16.27
2018-05-18T10:45:31.823Z,14.23
2018-05-18T10:47:58.148Z,13.90
2018-05-18T10:50:25.262Z,13.90
2018-05-18T10:52:51.613Z,14.20
2018-05-18T10:55:17.984Z,15.37
2018-05-18T10:57:44.317Z,13.20
2018-05-18T11:00:10.831Z,12.70
2018-05-18T11:02:37.185Z,12.77
2018-05-18T11:05:03.589Z,14.80
2018-05-18T11:07:30.665Z,12.60
2018-05-18T11:09:57.051Z,14.27
2018-05-18T11:12:23.365Z,13.87
2018-05-18T11:14:50.470Z,14.53
2018-05-18T11:17:16.806Z,14.53
2018-05-18T11:19:43.188Z,12.80
2018-05-18T11:22:10.292Z,13.53
2018-05-18T11:24:36.633Z,14.60
2018-05-18T11:27:04.531Z,13.40
2018-05-18T11:29:30.871Z,14.07
2018-05-18T11:31:58.701Z,14.00
2018-05-18T11:34:25.045Z,14.90
2018-05-18T11:36:51.393Z,15.10
2018-05-18T11:39:18.461Z,13.90
2018-05-18T11:41:44.896Z,14.40
2018-05-18T11:44:11.216Z,13.80
2018-05-18T11:46:37.588Z,12.67
2018-05-18T11:49:03.946Z,12.90
2018-05-18T11:51:30.297Z,12.40
2018-05-18T11:53:56.614Z,13.67
2018-05-18T11:56:23.754Z,13.07
2018-05-18T11:58:50.850Z,15.17
2018-05-18T12:01:17.193Z,14.57
2018-05-18T12:03:43.557Z,14.10
2018-05-18T12:06:09.909Z,14.63
2018-05-18T12:08:37.083Z,13.97
2018-05-18T12:11:03.397Z,15.43
2018-05-18T12:13:29.767Z,14.40
2018-05-18T12:15:56.162Z,14.73
2018-05-18T12:18:22.521Z,14.87
2018-05-18T12:20:48.840Z,14.53
2018-05-18T12:23:15.186Z,13.63
2018-05-18T12:25:41.525Z,14.40
2018-05-18T12:28:07.870Z,14.27
2018-05-18T12:30:34.448Z,15.00
2018-05-18T12:33:02.161Z,14.63
2018-05-18T12:35:28.531Z,13.43
2018-05-18T12:37:54.960Z,14.00
2018-05-18T12:40:21.367Z,14.20
2018-05-18T12:42:49.221Z,14.27
2018-05-18T12:45:15.554Z,14.70
2018-05-18T12:47:41.917Z,14.67
2018-05-18T12:50:08.250Z,15.40
2018-05-18T12:52:34.607Z,14.93
2018-05-18T12:55:01.103Z,15.20
2018-05-18T12:57:27.458Z,16.20
2018-05-18T12:59:54.509Z,15.27
2018-05-18T13:02:21.609Z,16.03
2018-05-18T13:04:47.970Z,16.03
2018-05-18T13:07:14.315Z,15.70
2018-05-18T13:09:41.380Z,16.10
2018-05-18T13:12:08.463Z,16.00
2018-05-18T13:14:34.799Z,14.23
2018-05-18T13:17:01.146Z,15.80
2018-05-18T13:19:28.290Z,14.57
2018-05-18T13:21:54.743Z,15.17
2018-05-18T13:24:21.840Z,15.87
2018-05-18T13:26:48.199Z,14.57
2018-05-18T13:29:14.635Z,13.80
2018-05-18T13:31:40.985Z,14.67
2018-05-18T13:34:08.111Z,13.67
2018-05-18T13:36:34.477Z,13.83
2018-05-18T13:39:00.850Z,15.47
2018-05-18T13:41:27.210Z,14.47
2018-05-18T13:43:53.557Z,15.47
2018-05-18T13:46:19.887Z,14.20
2018-05-18T13:48:46.248Z,14.90
2018-05-18T13:51:12.584Z,13.60
2018-05-18T13:53:38.928Z,14.60
2018-05-18T13:56:05.313Z,13.80
2018-05-18T13:58:32.492Z,13.83
2018-05-18T14:00:58.825Z,14.27
2018-05-18T14:03:25.211Z,14.17
2018-05-18T14:05:51.528Z,15.40
2018-05-18T14:08:17.895Z,14.30
2018-05-18T14:10:45.000Z,13.23
2018-05-18T14:13:11.359Z,13.97
2018-05-18T14:15:37.699Z,14.73
2018-05-18T14:18:06.413Z,13.23
2018-05-18T14:20:33.275Z,15.03
2018-05-18T14:22:59.653Z,14.13
2018-05-18T14:25:27.317Z,14.20
2018-05-18T14:27:53.856Z,15.53
2018-05-18T14:30:20.929Z,13.83
2018-05-18T14:32:47.300Z,17.40
2018-05-18T14:35:13.647Z,12.87
2018-05-18T14:37:40.012Z,13.07
2018-05-18T14:40:07.113Z,13.10
2018-05-18T14:42:33.475Z,13.07
2018-05-18T14:44:59.861Z,15.40
2018-05-18T14:47:26.211Z,12.80
2018-05-18T14:49:52.582Z,13.27
2018-05-18T14:52:18.913Z,12.00
2018-05-18T14:54:45.319Z,13.63
2018-05-18T14:57:12.448Z,12.70
2018-05-18T14:59:38.784Z,12.80
2018-05-18T15:02:05.162Z,12.90
2018-05-18T15:04:31.552Z,14.17
2018-05-18T15:06:57.877Z,12.60
2018-05-18T15:09:24.241Z,11.73
2018-05-18T15:11:51.299Z,12.77
2018-05-18T15:14:17.886Z,11.50
2018-05-18T15:16:45.610Z,11.53
2018-05-18T15:19:11.971Z,11.77
2018-05-18T15:21:38.314Z,12.40
2018-05-18T15:24:04.711Z,11.83
2018-05-18T15:26:31.048Z,12.27
2018-05-18T15:28:57.414Z,11.50
2018-05-18T15:31:23.801Z,12.17
2018-05-18T15:33:50.170Z,12.20
2018-05-18T15:36:16.501Z,12.50
2018-05-18T15:38:42.927Z,11.90
2018-05-18T15:41:09.269Z,12.57
2018-05-18T15:43:35.631Z,13.17
2018-05-18T15:46:02.022Z,12.30
2018-05-18T15:48:28.363Z,13.37
2018-05-18T15:50:54.708Z,11.67
2018-05-18T15:53:21.076Z,12.13
2018-05-18T15:55:47.437Z,12.20
2018-05-18T15:58:13.759Z,13.83
2018-05-18T16:00:40.122Z,12.37
2018-05-18T16:03:06.443Z,11.57
2018-05-18T16:05:34.276Z,11.20
2018-05-18T16:08:00.595Z,11.40
2018-05-18T16:10:27.062Z,13.43
2018-05-18T16:12:53.481Z,10.03
2018-05-18T16:15:20.643Z,11.97
2018-05-18T16:17:46.966Z,11.70
2018-05-18T16:20:13.402Z,11.37
2018-05-18T16:22:39.725Z,11.97
2018-05-18T16:25:06.112Z,12.17
2018-05-18T16:27:35.429Z,10.47
2018-05-18T16:30:01.776Z,11.60
2018-05-18T16:32:28.129Z,11.60
2018-05-18T16:34:56.015Z,10.30
2018-05-18T16:37:22.379Z,11.80
2018-05-18T16:39:48.749Z,11.77
2018-05-18T16:42:15.108Z,12.67
2018-05-18T16:44:41.483Z,11.23
2018-05-18T16:47:07.833Z,12.67
2018-05-18T16:49:34.170Z,12.00
2018-05-18T16:52:00.555Z,11.90
2018-05-18T16:54:27.655Z,12.63
2018-05-18T16:56:54.029Z,11.67
2018-05-18T16:59:20.350Z,11.70
2018-05-18T17:01:46.851Z,11.70
2018-05-18T17:04:13.185Z,11.70
2018-05-18T17:06:39.647Z,11.03
2018-05-18T17:09:05.933Z,11.60
2018-05-18T17:11:32.304Z,12.20
2018-05-18T17:13:59.367Z,11.17
2018-05-18T17:16:25.770Z,11.47
2018-05-18T17:18:52.501Z,11.40
2018-05-18T17:21:18.814Z,12.03
2018-05-18T17:23:45.103Z,11.93
2018-05-18T17:26:11.455Z,12.87
2018-05-18T17:28:37.744Z,11.97
2018-05-18T17:31:04.093Z,13.13
2018-05-18T17:33:30.442Z,12.73
2018-05-18T17:35:56.812Z,13.17
2018-05-18T17:38:23.105Z,11.17
2018-05-18T17:40:50.217Z,11.40
2018-05-18T17:43:16.514Z,11.87
2018-05-18T17:45:42.868Z,13.23
2018-05-18T17:48:09.156Z,12.53
2018-05-18T17:50:35.471Z,12.07
2018-05-18T17:53:02.506Z,12.53
2018-05-18T17:55:28.887Z,12.90
2018-05-18T17:57:55.228Z,11.90
2018-05-18T18:00:21.629Z,12.43
2018-05-18T18:02:47.968Z,12.57
2018-05-18T18:05:14.270Z,11.70
2018-05-18T18:07:40.629Z,12.03
2018-05-18T18:10:06.950Z,12.73
2018-05-18T18:12:33.311Z,11.97
2018-05-18T18:14:59.601Z,12.67
2018-05-18T18:17:25.963Z,14.50
2018-05-18T18:19:52.822Z,13.53
2018-05-18T18:22:19.130Z,11.77
2018-05-18T18:24:45.507Z,11.47
2018-05-18T18:27:13.287Z,12.03
2018-05-18T18:29:40.321Z,10.97
2018-05-18T18:32:06.657Z,11.30
2018-05-18T18:34:33.702Z,11.07
2018-05-18T18:37:00.774Z,12.23
2018-05-18T18:39:27.402Z,11.67
2018-05-18T18:41:54.530Z,12.73
2018-05-18T18:44:20.830Z,11.50
2018-05-18T18:46:47.166Z,12.43
2018-05-18T18:49:13.476Z,10.50
2018-05-18T18:51:39.814Z,10.50
2018-05-18T18:54:06.137Z,10.70
2018-05-18T18:56:32.482Z,12.00
2018-05-18T18:58:58.796Z,11.70
2018-05-18T19:01:25.142Z,12.20
2018-05-18T19:03:51.493Z,10.50
2018-05-18T19:06:17.828Z,11.10
2018-05-18T19:08:45.025Z,10.90
2018-05-18T19:11:11.371Z,11.50
2018-05-18T19:13:37.787Z,12.03
2018-05-18T19:16:04.151Z,10.90
2018-05-18T19:18:30.445Z,10.70
2018-05-18T19:20:56.784Z,11.17
2018-05-18T19:23:23.089Z,11.93
2018-05-18T19:25:50.089Z,10.17
2018-05-18T19:28:17.175Z,11.40
2018-05-18T19:30:44.196Z,12.13
2018-05-18T19:33:10.518Z,10.10
2018-05-18T19:35:37.573Z,11.30
2018-05-18T19:38:03.930Z,11.20
2018-05-18T19:40:30.284Z,11.80
2018-05-18T19:42:56.594Z,12.20
2018-05-18T19:45:23.638Z,10.80
2018-05-18T19:47:50.504Z,10.37
2018-05-18T19:50:16.935Z,11.73
2018-05-18T19:52:43.261Z,10.73
2018-05-18T19:55:14.965Z,10.53
2018-05-18T19:57:41.293Z,10.33
2018-05-18T20:00:08.504Z,10.97
2018-05-18T20:02:34.941Z,11.43
2018-05-18T20:05:01.332Z,10.93
2018-05-18T20:07:28.417Z,11.73
2018-05-18T20:09:54.848Z,11.97
2018-05-18T20:12:21.285Z,12.13
2018-05-18T20:14:47.554Z,11.80
2018-05-18T20:17:13.916Z,10.80
2018-05-18T20:19:40.961Z,11.67
2018-05-18T20:22:07.479Z,13.90
2018-05-18T20:24:33.798Z,12.77
2018-05-18T20:27:00.493Z,12.90
2018-05-18T20:29:26.818Z,12.00
2018-05-18T20:31:53.153Z,11.97
2018-05-18T20:34:19.546Z,11.30
2018-05-18T20:36:45.795Z,13.17
2018-05-18T20:39:12.137Z,13.90
2018-05-18T20:41:39.431Z,13.07
2018-05-18T20:44:05.764Z,12.53
2018-05-18T20:46:32.065Z,12.73
2018-05-18T20:48:58.462Z,12.80
2018-05-18T20:51:24.981Z,12.57
2018-05-18T20:53:51.399Z,13.37
2018-05-18T20:56:18.498Z,13.10
2018-05-18T20:58:44.871Z,13.27
2018-05-18T21:01:11.506Z,13.77
2018-05-18T21:03:38.554Z,13.73
2018-05-18T21:06:05.657Z,12.70
2018-05-18T21:08:32.009Z,14.37
2018-05-18T21:10:59.140Z,13.47
2018-05-18T21:13:25.478Z,13.43
2018-05-18T21:15:51.809Z,13.17
2018-05-18T21:18:18.140Z,12.90
2018-05-18T21:20:44.429Z,12.40
2018-05-18T21:23:11.614Z,13.80
2018-05-18T21:25:38.157Z,12.90
2018-05-18T21:28:04.491Z,13.87
2018-05-18T21:30:31.136Z,13.70
2018-05-18T21:32:57.485Z,14.10
2018-05-18T21:35:23.850Z,13.90
2018-05-18T21:37:50.261Z,13.73
2018-05-18T21:40:16.598Z,13.23
2018-05-18T21:42:43.082Z,14.17
2018-05-18T21:45:09.429Z,14.93
2018-05-18T21:47:36.866Z,14.43
2018-05-18T21:50:03.165Z,14.87
2018-05-18T21:52:29.498Z,14.07
2018-05-18T21:54:55.908Z,13.10
2018-05-18T21:57:22.227Z,12.43
2018-05-18T21:59:48.561Z,13.93
2018-05-18T22:02:14.895Z,13.30
2018-05-18T22:04:41.261Z,12.83
2018-05-18T22:07:08.168Z,13.57
2018-05-18T22:09:34.825Z,14.33
2018-05-18T22:12:01.206Z,13.80
2018-05-18T22:14:27.534Z,13.50
2018-05-18T22:16:53.906Z,13.07
2018-05-18T22:19:20.271Z,14.63
2018-05-18T22:21:46.691Z,13.70
2018-05-18T22:24:13.060Z,15.03
2018-05-18T22:26:40.145Z,14.67
2018-05-18T22:29:07.339Z,14.30
2018-05-18T22:31:33.685Z,13.33
2018-05-18T22:34:00.055Z,13.77
2018-05-18T22:36:26.407Z,13.10
2018-05-18T22:38:52.792Z,13.30
2018-05-18T22:41:20.089Z,14.10
2018-05-18T22:43:46.446Z,12.83
2018-05-18T22:46:12.855Z,12.57
2018-05-18T22:48:39.935Z,13.87
2018-05-18T22:51:06.356Z,14.17
2018-05-18T22:53:32.699Z,13.43
2018-05-18T22:55:59.437Z,13.97
2018-05-18T22:58:26.651Z,14.30
2018-05-18T23:00:53.068Z,15.37
2018-05-18T23:03:19.457Z,13.90
2018-05-18T23:05:46.589Z,16.27
2018-05-18T23:08:13.074Z,14.33
2018-05-18T23:10:39.438Z,12.87
2018-05-18T23:13:05.790Z,14.87
2018-05-18T23:15:32.156Z,14.37
2018-05-18T23:17:58.515Z,13.47
2018-05-18T23:20:24.870Z,13.60
2018-05-18T23:22:51.269Z,13.70
2018-05-18T23:25:18.941Z,13.40
2018-05-18T23:27:45.275Z,13.80
2018-05-18T23:30:11.645Z,14.53
2018-05-18T23:32:38.766Z,14.00
2018-05-18T23:35:05.167Z,15.10
2018-05-18T23:37:31.503Z,16.47
2018-05-18T23:39:57.892Z,15.60
2018-05-18T23:42:26.292Z,16.60
2018-05-18T23:44:53.540Z,15.90
2018-05-18T23:47:19.928Z,16.60
2018-05-18T23:49:46.298Z,16.17
2018-05-18T23:52:12.666Z,16.60
2018-05-18T23:54:39.004Z,17.60
2018-05-18T23:57:05.350Z,16.53
2018-05-18T23:59:31.704Z,17.80
